sensor_id;sensor_type;location;lat;lon;timestamp;temperature;humidity
37204;DHT22;23098;48.054;10.636;2022-10-31T00:00:41;9.90;99.90
37204;DHT22;23098;48.054;10.636;2022-10-31T00:03:07;9.80;99.90
37204;DHT22;23098;48.054;10.636;2022-10-31T00:05:32;9.80;99.90
37204;DHT22;23098;48.054;10.636;2022-10-31T00:07:58;9.80;99.90
37204;DHT22;23098;48.054;10.636;2022-10-31T00:10:23;9.80;99.90
37204;DHT22;23098;48.054;10.636;2022-10-31T00:12:49;9.80;99.90
37204;DHT22;23098;48.054;10.636;2022-10-31T00:15:16;9.90;99.90
37204;DHT22;23098;48.054;10.636;2022-10-31T00:17:41;9.80;99.90
37204;DHT22;23098;48.054;10.636;2022-10-31T00:20:07;9.80;99.90
37204;DHT22;23098;48.054;10.636;2022-10-31T00:22:33;9.80;99.90
37204;DHT22;23098;48.054;10.636;2022-10-31T00:24:58;9.80;99.90
37204;DHT22;23098;48.054;10.636;2022-10-31T00:27:24;9.80;99.90
37204;DHT22;23098;48.054;10.636;2022-10-31T00:29:49;9.70;99.90
37204;DHT22;23098;48.054;10.636;2022-10-31T00:32:15;9.70;99.90
37204;DHT22;23098;48.054;10.636;2022-10-31T00:34:40;9.70;99.90
37204;DHT22;23098;48.054;10.636;2022-10-31T00:37:06;9.70;99.90
37204;DHT22;23098;48.054;10.636;2022-10-31T00:39:31;9.80;99.90
37204;DHT22;23098;48.054;10.636;2022-10-31T00:41:57;9.80;99.90
37204;DHT22;23098;48.054;10.636;2022-10-31T00:44:22;9.80;99.90
37204;DHT22;23098;48.054;10.636;2022-10-31T00:46:48;9.80;99.90
37204;DHT22;23098;48.054;10.636;2022-10-31T00:49:13;9.80;99.90
37204;DHT22;23098;48.054;10.636;2022-10-31T00:51:39;9.80;99.90
37204;DHT22;23098;48.054;10.636;2022-10-31T00:54:04;9.70;99.90
37204;DHT22;23098;48.054;10.636;2022-10-31T00:56:30;9.70;99.90
37204;DHT22;23098;48.054;10.636;2022-10-31T00:58:55;9.70;99.90
37204;DHT22;23098;48.054;10.636;2022-10-31T01:01:21;9.70;99.90
37204;DHT22;23098;48.054;10.636;2022-10-31T01:03:46;9.60;99.90
37204;DHT22;23098;48.054;10.636;2022-10-31T01:06:13;9.60;99.90
37204;DHT22;23098;48.054;10.636;2022-10-31T01:08:39;9.60;99.90
37204;DHT22;23098;48.054;10.636;2022-10-31T01:11:07;9.60;99.90
37204;DHT22;23098;48.054;10.636;2022-10-31T01:13:35;9.60;99.90
37204;DHT22;23098;48.054;10.636;2022-10-31T01:16:02;9.50;99.90
37204;DHT22;23098;48.054;10.636;2022-10-31T01:18:28;9.60;99.90
37204;DHT22;23098;48.054;10.636;2022-10-31T01:21:07;9.50;99.90
37204;DHT22;23098;48.054;10.636;2022-10-31T01:23:33;9.50;99.90
37204;DHT22;23098;48.054;10.636;2022-10-31T01:26:07;9.50;99.90
37204;DHT22;23098;48.054;10.636;2022-10-31T01:28:35;9.50;99.90
37204;DHT22;23098;48.054;10.636;2022-10-31T01:31:02;9.50;99.90
37204;DHT22;23098;48.054;10.636;2022-10-31T01:33:29;9.60;99.90
37204;DHT22;23098;48.054;10.636;2022-10-31T01:35:54;9.50;99.90
37204;DHT22;23098;48.054;10.636;2022-10-31T01:38:20;9.60;99.90
37204;DHT22;23098;48.054;10.636;2022-10-31T01:40:45;9.60;99.90
37204;DHT22;23098;48.054;10.636;2022-10-31T01:43:13;9.60;99.90
37204;DHT22;23098;48.054;10.636;2022-10-31T01:45:39;9.50;99.90
37204;DHT22;23098;48.054;10.636;2022-10-31T01:48:05;9.60;99.90
37204;DHT22;23098;48.054;10.636;2022-10-31T01:50:36;9.60;99.90
37204;DHT22;23098;48.054;10.636;2022-10-31T01:53:05;9.70;99.90
37204;DHT22;23098;48.054;10.636;2022-10-31T01:55:38;9.60;99.90
37204;DHT22;23098;48.054;10.636;2022-10-31T01:58:09;9.60;99.90
37204;DHT22;23098;48.054;10.636;2022-10-31T02:00:37;9.60;99.90
37204;DHT22;23098;48.054;10.636;2022-10-31T02:03:03;9.40;99.90
37204;DHT22;23098;48.054;10.636;2022-10-31T02:05:30;9.30;99.90
37204;DHT22;23098;48.054;10.636;2022-10-31T02:08:02;9.20;99.90
37204;DHT22;23098;48.054;10.636;2022-10-31T02:10:31;9.20;99.90
37204;DHT22;23098;48.054;10.636;2022-10-31T02:12:58;9.20;99.90
37204;DHT22;23098;48.054;10.636;2022-10-31T02:15:24;9.20;99.90
37204;DHT22;23098;48.054;10.636;2022-10-31T02:17:51;9.20;99.90
37204;DHT22;23098;48.054;10.636;2022-10-31T02:20:21;9.20;99.90
37204;DHT22;23098;48.054;10.636;2022-10-31T02:23:11;9.30;99.90
37204;DHT22;23098;48.054;10.636;2022-10-31T02:26:17;9.30;99.90
37204;DHT22;23098;48.054;10.636;2022-10-31T02:37:01;9.30;99.90
37204;DHT22;23098;48.054;10.636;2022-10-31T02:39:36;9.40;99.90
37204;DHT22;23098;48.054;10.636;2022-10-31T02:42:13;9.40;99.90
37204;DHT22;23098;48.054;10.636;2022-10-31T02:45:23;9.40;99.90
37204;DHT22;23098;48.054;10.636;2022-10-31T02:47:33;9.30;99.90
37204;DHT22;23098;48.054;10.636;2022-10-31T02:50:25;9.30;99.90
37204;DHT22;23098;48.054;10.636;2022-10-31T02:52:52;9.30;99.90
37204;DHT22;23098;48.054;10.636;2022-10-31T02:58:05;9.30;99.90
37204;DHT22;23098;48.054;10.636;2022-10-31T03:00:39;9.30;99.90
37204;DHT22;23098;48.054;10.636;2022-10-31T03:06:38;9.20;99.90
37204;DHT22;23098;48.054;10.636;2022-10-31T03:09:26;9.20;99.90
37204;DHT22;23098;48.054;10.636;2022-10-31T03:14:40;9.10;99.90
37204;DHT22;23098;48.054;10.636;2022-10-31T03:17:10;9.10;99.90
37204;DHT22;23098;48.054;10.636;2022-10-31T03:19:45;9.00;99.90
37204;DHT22;23098;48.054;10.636;2022-10-31T03:22:22;9.00;99.90
37204;DHT22;23098;48.054;10.636;2022-10-31T03:24:50;8.90;99.90
37204;DHT22;23098;48.054;10.636;2022-10-31T03:27:22;8.90;99.90
37204;DHT22;23098;48.054;10.636;2022-10-31T03:29:50;8.80;99.90
37204;DHT22;23098;48.054;10.636;2022-10-31T03:32:58;8.80;99.90
37204;DHT22;23098;48.054;10.636;2022-10-31T03:35:27;8.70;99.90
37204;DHT22;23098;48.054;10.636;2022-10-31T03:37:55;8.70;99.90
37204;DHT22;23098;48.054;10.636;2022-10-31T03:40:23;8.80;99.90
37204;DHT22;23098;48.054;10.636;2022-10-31T03:43:03;8.70;99.90
37204;DHT22;23098;48.054;10.636;2022-10-31T03:45:30;8.70;99.90
37204;DHT22;23098;48.054;10.636;2022-10-31T03:47:58;8.70;99.90
37204;DHT22;23098;48.054;10.636;2022-10-31T03:50:28;8.70;99.90
37204;DHT22;23098;48.054;10.636;2022-10-31T03:53:08;8.70;99.90
37204;DHT22;23098;48.054;10.636;2022-10-31T04:00:35;8.70;99.90
37204;DHT22;23098;48.054;10.636;2022-10-31T04:03:15;8.60;99.90
37204;DHT22;23098;48.054;10.636;2022-10-31T04:05:44;8.50;99.90
37204;DHT22;23098;48.054;10.636;2022-10-31T04:08:15;8.50;99.90
37204;DHT22;23098;48.054;10.636;2022-10-31T04:10:44;8.40;99.90
37204;DHT22;23098;48.054;10.636;2022-10-31T04:13:16;8.50;99.90
37204;DHT22;23098;48.054;10.636;2022-10-31T04:15:43;8.50;99.90
37204;DHT22;23098;48.054;10.636;2022-10-31T04:18:10;8.50;99.90
37204;DHT22;23098;48.054;10.636;2022-10-31T04:20:40;8.40;99.90
37204;DHT22;23098;48.054;10.636;2022-10-31T04:23:27;8.40;99.90
37204;DHT22;23098;48.054;10.636;2022-10-31T04:25:52;8.40;99.90
37204;DHT22;23098;48.054;10.636;2022-10-31T04:28:18;8.40;99.90
37204;DHT22;23098;48.054;10.636;2022-10-31T04:30:44;8.40;99.90
37204;DHT22;23098;48.054;10.636;2022-10-31T04:33:10;8.50;99.90
37204;DHT22;23098;48.054;10.636;2022-10-31T04:35:35;8.50;99.90
37204;DHT22;23098;48.054;10.636;2022-10-31T04:38:01;8.50;99.90
37204;DHT22;23098;48.054;10.636;2022-10-31T04:40:26;8.50;99.90
37204;DHT22;23098;48.054;10.636;2022-10-31T04:42:52;8.50;99.90
37204;DHT22;23098;48.054;10.636;2022-10-31T04:45:17;8.50;99.90
37204;DHT22;23098;48.054;10.636;2022-10-31T04:47:43;8.40;99.90
37204;DHT22;23098;48.054;10.636;2022-10-31T04:50:08;8.40;99.90
37204;DHT22;23098;48.054;10.636;2022-10-31T04:52:45;8.40;99.90
37204;DHT22;23098;48.054;10.636;2022-10-31T04:55:12;8.40;99.90
37204;DHT22;23098;48.054;10.636;2022-10-31T04:57:44;8.40;99.90
37204;DHT22;23098;48.054;10.636;2022-10-31T05:00:12;8.50;99.90
37204;DHT22;23098;48.054;10.636;2022-10-31T05:02:52;8.50;99.90
37204;DHT22;23098;48.054;10.636;2022-10-31T05:05:20;8.50;99.90
37204;DHT22;23098;48.054;10.636;2022-10-31T05:07:47;8.50;99.90
37204;DHT22;23098;48.054;10.636;2022-10-31T05:10:18;8.60;99.90
37204;DHT22;23098;48.054;10.636;2022-10-31T05:12:51;8.60;99.90
37204;DHT22;23098;48.054;10.636;2022-10-31T05:15:19;8.50;99.90
37204;DHT22;23098;48.054;10.636;2022-10-31T05:17:45;8.50;99.90
37204;DHT22;23098;48.054;10.636;2022-10-31T05:20:11;8.50;99.90
37204;DHT22;23098;48.054;10.636;2022-10-31T05:22:46;8.50;99.90
37204;DHT22;23098;48.054;10.636;2022-10-31T05:25:12;8.50;99.90
37204;DHT22;23098;48.054;10.636;2022-10-31T05:27:42;8.50;99.90
37204;DHT22;23098;48.054;10.636;2022-10-31T05:30:09;8.50;99.90
37204;DHT22;23098;48.054;10.636;2022-10-31T05:32:46;8.50;99.90
37204;DHT22;23098;48.054;10.636;2022-10-31T05:35:14;8.50;99.90
37204;DHT22;23098;48.054;10.636;2022-10-31T05:37:40;8.40;99.90
37204;DHT22;23098;48.054;10.636;2022-10-31T05:40:09;8.40;99.90
37204;DHT22;23098;48.054;10.636;2022-10-31T05:42:35;8.40;99.90
37204;DHT22;23098;48.054;10.636;2022-10-31T05:45:01;8.40;99.90
37204;DHT22;23098;48.054;10.636;2022-10-31T05:47:26;8.30;99.90
37204;DHT22;23098;48.054;10.636;2022-10-31T05:49:52;8.30;99.90
37204;DHT22;23098;48.054;10.636;2022-10-31T05:52:18;8.30;99.90
37204;DHT22;23098;48.054;10.636;2022-10-31T05:54:44;8.30;99.90
37204;DHT22;23098;48.054;10.636;2022-10-31T05:57:09;8.30;99.90
37204;DHT22;23098;48.054;10.636;2022-10-31T05:59:35;8.30;99.90
37204;DHT22;23098;48.054;10.636;2022-10-31T06:02:00;8.30;99.90
37204;DHT22;23098;48.054;10.636;2022-10-31T06:04:26;8.30;99.90
37204;DHT22;23098;48.054;10.636;2022-10-31T06:06:51;8.30;99.90
37204;DHT22;23098;48.054;10.636;2022-10-31T06:09:17;8.40;99.90
37204;DHT22;23098;48.054;10.636;2022-10-31T06:11:42;8.40;99.90
37204;DHT22;23098;48.054;10.636;2022-10-31T06:14:08;8.40;99.90
37204;DHT22;23098;48.054;10.636;2022-10-31T06:16:34;8.40;99.90
37204;DHT22;23098;48.054;10.636;2022-10-31T06:18:59;8.50;99.90
37204;DHT22;23098;48.054;10.636;2022-10-31T06:21:25;8.50;99.90
37204;DHT22;23098;48.054;10.636;2022-10-31T06:23:50;8.50;99.90
37204;DHT22;23098;48.054;10.636;2022-10-31T06:26:16;8.50;99.90
37204;DHT22;23098;48.054;10.636;2022-10-31T06:28:41;8.50;99.90
37204;DHT22;23098;48.054;10.636;2022-10-31T06:31:07;8.50;99.90
37204;DHT22;23098;48.054;10.636;2022-10-31T06:33:33;8.60;99.90
37204;DHT22;23098;48.054;10.636;2022-10-31T06:36:00;8.60;99.90
37204;DHT22;23098;48.054;10.636;2022-10-31T06:38:28;8.70;99.90
37204;DHT22;23098;48.054;10.636;2022-10-31T06:40:54;8.70;99.90
37204;DHT22;23098;48.054;10.636;2022-10-31T06:43:21;8.80;99.90
37204;DHT22;23098;48.054;10.636;2022-10-31T06:45:47;8.80;99.90
37204;DHT22;23098;48.054;10.636;2022-10-31T06:48:12;8.90;99.90
37204;DHT22;23098;48.054;10.636;2022-10-31T06:50:38;8.90;99.90
37204;DHT22;23098;48.054;10.636;2022-10-31T06:53:04;8.90;99.90
37204;DHT22;23098;48.054;10.636;2022-10-31T06:55:29;9.00;99.90
37204;DHT22;23098;48.054;10.636;2022-10-31T06:57:57;9.10;99.90
37204;DHT22;23098;48.054;10.636;2022-10-31T07:00:24;9.10;99.90
37204;DHT22;23098;48.054;10.636;2022-10-31T07:05:23;9.30;99.90
37204;DHT22;23098;48.054;10.636;2022-10-31T07:07:53;9.30;99.90
37204;DHT22;23098;48.054;10.636;2022-10-31T07:10:19;9.40;99.90
37204;DHT22;23098;48.054;10.636;2022-10-31T07:12:45;9.50;99.90
37204;DHT22;23098;48.054;10.636;2022-10-31T07:15:11;9.50;99.90
37204;DHT22;23098;48.054;10.636;2022-10-31T07:17:36;9.70;99.90
37204;DHT22;23098;48.054;10.636;2022-10-31T07:20:02;9.80;99.90
37204;DHT22;23098;48.054;10.636;2022-10-31T07:22:35;9.90;99.90
37204;DHT22;23098;48.054;10.636;2022-10-31T07:25:01;10.00;99.90
37204;DHT22;23098;48.054;10.636;2022-10-31T07:27:26;10.20;99.90
37204;DHT22;23098;48.054;10.636;2022-10-31T07:29:52;10.30;99.90
37204;DHT22;23098;48.054;10.636;2022-10-31T07:32:18;10.50;99.90
37204;DHT22;23098;48.054;10.636;2022-10-31T07:34:44;10.70;99.90
37204;DHT22;23098;48.054;10.636;2022-10-31T07:37:10;10.80;99.90
37204;DHT22;23098;48.054;10.636;2022-10-31T07:39:35;11.00;99.90
37204;DHT22;23098;48.054;10.636;2022-10-31T07:42:01;11.00;99.90
37204;DHT22;23098;48.054;10.636;2022-10-31T07:44:26;11.30;99.90
37204;DHT22;23098;48.054;10.636;2022-10-31T07:46:52;11.40;99.90
37204;DHT22;23098;48.054;10.636;2022-10-31T07:49:17;11.60;99.90
37204;DHT22;23098;48.054;10.636;2022-10-31T07:51:43;11.90;99.90
37204;DHT22;23098;48.054;10.636;2022-10-31T07:54:08;12.10;99.90
37204;DHT22;23098;48.054;10.636;2022-10-31T07:56:34;12.30;99.90
37204;DHT22;23098;48.054;10.636;2022-10-31T07:58:59;12.50;99.90
37204;DHT22;23098;48.054;10.636;2022-10-31T08:01:25;12.50;99.90
37204;DHT22;23098;48.054;10.636;2022-10-31T08:03:50;12.50;99.90
37204;DHT22;23098;48.054;10.636;2022-10-31T08:06:16;12.60;99.90
37204;DHT22;23098;48.054;10.636;2022-10-31T08:08:41;12.70;99.90
37204;DHT22;23098;48.054;10.636;2022-10-31T08:11:07;13.00;99.90
37204;DHT22;23098;48.054;10.636;2022-10-31T08:13:32;13.20;99.90
37204;DHT22;23098;48.054;10.636;2022-10-31T08:15:58;13.50;99.90
37204;DHT22;23098;48.054;10.636;2022-10-31T08:18:29;13.80;99.90
37204;DHT22;23098;48.054;10.636;2022-10-31T08:20:54;14.10;99.90
37204;DHT22;23098;48.054;10.636;2022-10-31T08:23:20;14.30;99.90
37204;DHT22;23098;48.054;10.636;2022-10-31T08:30:57;15.10;99.90
37204;DHT22;23098;48.054;10.636;2022-10-31T08:33:23;15.30;99.90
37204;DHT22;23098;48.054;10.636;2022-10-31T08:35:49;15.60;99.90
37204;DHT22;23098;48.054;10.636;2022-10-31T10:11:02;18.70;99.90
37204;DHT22;23098;48.054;10.636;2022-10-31T10:13:47;18.60;99.90
37204;DHT22;23098;48.054;10.636;2022-10-31T10:16:40;18.60;99.90
37204;DHT22;23098;48.054;10.636;2022-10-31T10:21:55;18.60;99.90
37204;DHT22;23098;48.054;10.636;2022-10-31T10:24:39;18.70;99.90
37204;DHT22;23098;48.054;10.636;2022-10-31T10:29:50;18.90;99.90
37204;DHT22;23098;48.054;10.636;2022-10-31T10:32:22;18.80;99.90
37204;DHT22;23098;48.054;10.636;2022-10-31T10:34:52;18.60;99.90
37204;DHT22;23098;48.054;10.636;2022-10-31T10:39:55;18.40;99.90
37204;DHT22;23098;48.054;10.636;2022-10-31T10:42:23;18.10;99.90
37204;DHT22;23098;48.054;10.636;2022-10-31T10:45:17;18.00;99.90
37204;DHT22;23098;48.054;10.636;2022-10-31T10:50:44;18.10;99.90
37204;DHT22;23098;48.054;10.636;2022-10-31T10:56:00;18.50;99.90
37204;DHT22;23098;48.054;10.636;2022-10-31T10:58:30;18.60;99.90
37204;DHT22;23098;48.054;10.636;2022-10-31T11:00:56;18.50;99.90
37204;DHT22;23098;48.054;10.636;2022-10-31T11:03:22;18.60;99.90
37204;DHT22;23098;48.054;10.636;2022-10-31T11:05:55;18.70;99.90
37204;DHT22;23098;48.054;10.636;2022-10-31T11:08:31;18.70;99.90
37204;DHT22;23098;48.054;10.636;2022-10-31T11:11:05;18.70;99.90
37204;DHT22;23098;48.054;10.636;2022-10-31T11:13:34;18.80;99.90
37204;DHT22;23098;48.054;10.636;2022-10-31T11:16:03;19.00;99.90
37204;DHT22;23098;48.054;10.636;2022-10-31T11:18:32;19.00;99.90
37204;DHT22;23098;48.054;10.636;2022-10-31T11:21:01;19.20;99.90
37204;DHT22;23098;48.054;10.636;2022-10-31T11:23:28;19.30;99.90
37204;DHT22;23098;48.054;10.636;2022-10-31T11:31:27;19.90;99.90
37204;DHT22;23098;48.054;10.636;2022-10-31T11:34:01;20.00;99.90
37204;DHT22;23098;48.054;10.636;2022-10-31T11:36:30;19.90;99.90
37204;DHT22;23098;48.054;10.636;2022-10-31T11:38:59;19.90;99.90
37204;DHT22;23098;48.054;10.636;2022-10-31T11:41:30;20.20;99.90
37204;DHT22;23098;48.054;10.636;2022-10-31T11:44:01;20.30;99.90
37204;DHT22;23098;48.054;10.636;2022-10-31T11:46:36;20.60;99.90
37204;DHT22;23098;48.054;10.636;2022-10-31T11:49:03;21.30;99.90
37204;DHT22;23098;48.054;10.636;2022-10-31T11:51:32;21.90;99.90
37204;DHT22;23098;48.054;10.636;2022-10-31T11:53:59;22.40;99.90
37204;DHT22;23098;48.054;10.636;2022-10-31T11:56:28;22.60;99.90
37204;DHT22;23098;48.054;10.636;2022-10-31T11:59:04;22.80;99.90
37204;DHT22;23098;48.054;10.636;2022-10-31T12:01:31;22.70;99.90
37204;DHT22;23098;48.054;10.636;2022-10-31T12:04:06;22.40;99.90
37204;DHT22;23098;48.054;10.636;2022-10-31T12:06:37;22.30;99.90
37204;DHT22;23098;48.054;10.636;2022-10-31T12:09:29;22.20;99.90
37204;DHT22;23098;48.054;10.636;2022-10-31T12:17:19;21.60;99.90
37204;DHT22;23098;48.054;10.636;2022-10-31T12:20:16;21.60;99.90
37204;DHT22;23098;48.054;10.636;2022-10-31T12:25:48;20.60;99.90
37204;DHT22;23098;48.054;10.636;2022-10-31T12:31:23;20.30;99.90
37204;DHT22;23098;48.054;10.636;2022-10-31T12:34:03;20.10;99.90
37204;DHT22;23098;48.054;10.636;2022-10-31T12:36:58;19.70;99.90
37204;DHT22;23098;48.054;10.636;2022-10-31T12:39:41;19.50;99.90
37204;DHT22;23098;48.054;10.636;2022-10-31T13:01:29;21.20;99.90
37204;DHT22;23098;48.054;10.636;2022-10-31T13:03:58;21.50;99.90
37204;DHT22;23098;48.054;10.636;2022-10-31T13:06:35;22.00;99.90
37204;DHT22;23098;48.054;10.636;2022-10-31T13:09:06;22.00;99.90
37204;DHT22;23098;48.054;10.636;2022-10-31T13:11:58;22.20;99.90
37204;DHT22;23098;48.054;10.636;2022-10-31T13:14:34;22.30;99.90
37204;DHT22;23098;48.054;10.636;2022-10-31T13:17:02;22.40;99.90
37204;DHT22;23098;48.054;10.636;2022-10-31T13:19:41;22.30;99.90
37204;DHT22;23098;48.054;10.636;2022-10-31T13:22:18;21.80;99.90
37204;DHT22;23098;48.054;10.636;2022-10-31T13:25:02;21.20;99.90
37204;DHT22;23098;48.054;10.636;2022-10-31T13:27:44;20.80;99.90
37204;DHT22;23098;48.054;10.636;2022-10-31T13:30:17;20.40;99.90
37204;DHT22;23098;48.054;10.636;2022-10-31T13:35:32;19.30;99.90
37204;DHT22;23098;48.054;10.636;2022-10-31T13:38:35;19.00;99.90
37204;DHT22;23098;48.054;10.636;2022-10-31T13:44:04;18.80;99.90
37204;DHT22;23098;48.054;10.636;2022-10-31T13:46:35;18.80;99.90
37204;DHT22;23098;48.054;10.636;2022-10-31T13:49:01;18.80;99.90
37204;DHT22;23098;48.054;10.636;2022-10-31T13:51:33;18.90;99.90
37204;DHT22;23098;48.054;10.636;2022-10-31T13:56:50;19.10;99.90
37204;DHT22;23098;48.054;10.636;2022-10-31T13:59:22;19.20;99.90
37204;DHT22;23098;48.054;10.636;2022-10-31T14:04:36;19.40;99.90
37204;DHT22;23098;48.054;10.636;2022-10-31T14:07:14;19.60;99.90
37204;DHT22;23098;48.054;10.636;2022-10-31T14:10:06;19.80;99.90
37204;DHT22;23098;48.054;10.636;2022-10-31T14:12:41;19.60;99.90
37204;DHT22;23098;48.054;10.636;2022-10-31T14:15:23;19.30;99.90
37204;DHT22;23098;48.054;10.636;2022-10-31T14:17:56;19.10;99.90
37204;DHT22;23098;48.054;10.636;2022-10-31T14:25:35;18.80;99.90
37204;DHT22;23098;48.054;10.636;2022-10-31T14:28:05;18.70;99.90
37204;DHT22;23098;48.054;10.636;2022-10-31T14:30:55;18.70;99.90
37204;DHT22;23098;48.054;10.636;2022-10-31T14:33:22;18.80;99.90
37204;DHT22;23098;48.054;10.636;2022-10-31T14:36:01;18.70;99.90
37204;DHT22;23098;48.054;10.636;2022-10-31T14:38:57;18.70;99.90
37204;DHT22;23098;48.054;10.636;2022-10-31T14:41:58;18.60;99.90
37204;DHT22;23098;48.054;10.636;2022-10-31T14:52:35;18.50;99.90
37204;DHT22;23098;48.054;10.636;2022-10-31T14:55:06;18.50;99.90
37204;DHT22;23098;48.054;10.636;2022-10-31T14:57:34;18.50;99.90
37204;DHT22;23098;48.054;10.636;2022-10-31T15:00:05;18.40;99.90
37204;DHT22;23098;48.054;10.636;2022-10-31T15:02:54;18.30;99.90
37204;DHT22;23098;48.054;10.636;2022-10-31T15:05:22;18.20;99.90
37204;DHT22;23098;48.054;10.636;2022-10-31T15:07:55;18.10;99.90
37204;DHT22;23098;48.054;10.636;2022-10-31T15:10:30;18.00;99.90
37204;DHT22;23098;48.054;10.636;2022-10-31T15:13:17;17.90;99.90
37204;DHT22;23098;48.054;10.636;2022-10-31T15:15:42;17.70;99.90
37204;DHT22;23098;48.054;10.636;2022-10-31T15:18:16;17.60;99.90
37204;DHT22;23098;48.054;10.636;2022-10-31T15:20:44;17.60;99.90
37204;DHT22;23098;48.054;10.636;2022-10-31T15:23:15;17.50;99.90
37204;DHT22;23098;48.054;10.636;2022-10-31T15:25:41;17.50;99.90
37204;DHT22;23098;48.054;10.636;2022-10-31T15:28:15;17.40;99.90
37204;DHT22;23098;48.054;10.636;2022-10-31T15:30:50;17.20;99.90
37204;DHT22;23098;48.054;10.636;2022-10-31T15:33:20;17.00;99.90
37204;DHT22;23098;48.054;10.636;2022-10-31T15:35:55;16.90;99.90
37204;DHT22;23098;48.054;10.636;2022-10-31T15:38:21;16.80;99.90
37204;DHT22;23098;48.054;10.636;2022-10-31T15:41:02;16.70;99.90
37204;DHT22;23098;48.054;10.636;2022-10-31T15:43:35;16.50;99.90
37204;DHT22;23098;48.054;10.636;2022-10-31T15:46:03;16.40;99.90
37204;DHT22;23098;48.054;10.636;2022-10-31T15:48:29;16.30;99.90
37204;DHT22;23098;48.054;10.636;2022-10-31T15:50:58;16.10;99.90
37204;DHT22;23098;48.054;10.636;2022-10-31T15:53:41;16.00;99.90
37204;DHT22;23098;48.054;10.636;2022-10-31T15:56:11;15.80;99.90
37204;DHT22;23098;48.054;10.636;2022-10-31T15:58:47;15.70;99.90
37204;DHT22;23098;48.054;10.636;2022-10-31T16:01:23;15.50;99.90
37204;DHT22;23098;48.054;10.636;2022-10-31T16:04:19;15.40;99.90
37204;DHT22;23098;48.054;10.636;2022-10-31T16:07:00;15.30;99.90
37204;DHT22;23098;48.054;10.636;2022-10-31T16:09:26;15.10;99.90
37204;DHT22;23098;48.054;10.636;2022-10-31T16:14:30;14.80;99.90
37204;DHT22;23098;48.054;10.636;2022-10-31T16:16:57;14.60;99.90
37204;DHT22;23098;48.054;10.636;2022-10-31T16:19:33;14.50;99.90
37204;DHT22;23098;48.054;10.636;2022-10-31T16:22:08;14.40;99.90
37204;DHT22;23098;48.054;10.636;2022-10-31T16:27:23;14.10;99.90
37204;DHT22;23098;48.054;10.636;2022-10-31T16:29:51;14.00;99.90
37204;DHT22;23098;48.054;10.636;2022-10-31T16:32:32;14.00;99.90
37204;DHT22;23098;48.054;10.636;2022-10-31T16:37:44;13.80;99.90
37204;DHT22;23098;48.054;10.636;2022-10-31T16:40:14;13.80;99.90
37204;DHT22;23098;48.054;10.636;2022-10-31T16:42:40;13.80;99.90
37204;DHT22;23098;48.054;10.636;2022-10-31T16:45:07;13.80;99.90
37204;DHT22;23098;48.054;10.636;2022-10-31T16:47:33;13.70;99.90
37204;DHT22;23098;48.054;10.636;2022-10-31T16:49:59;13.60;99.90
37204;DHT22;23098;48.054;10.636;2022-10-31T16:52:26;13.40;99.90
37204;DHT22;23098;48.054;10.636;2022-10-31T16:54:52;13.30;99.90
37204;DHT22;23098;48.054;10.636;2022-10-31T16:57:21;13.20;99.90
37204;DHT22;23098;48.054;10.636;2022-10-31T16:59:51;13.10;99.90
37204;DHT22;23098;48.054;10.636;2022-10-31T17:02:18;12.90;99.90
37204;DHT22;23098;48.054;10.636;2022-10-31T17:04:44;12.80;99.90
37204;DHT22;23098;48.054;10.636;2022-10-31T17:07:10;12.70;99.90
37204;DHT22;23098;48.054;10.636;2022-10-31T17:09:35;12.70;99.90
37204;DHT22;23098;48.054;10.636;2022-10-31T17:12:01;12.50;99.90
37204;DHT22;23098;48.054;10.636;2022-10-31T17:14:27;12.50;99.90
37204;DHT22;23098;48.054;10.636;2022-10-31T17:16:53;12.40;99.90
37204;DHT22;23098;48.054;10.636;2022-10-31T17:19:19;12.40;99.90
37204;DHT22;23098;48.054;10.636;2022-10-31T17:21:44;12.30;99.90
37204;DHT22;23098;48.054;10.636;2022-10-31T17:24:14;12.20;99.90
37204;DHT22;23098;48.054;10.636;2022-10-31T17:26:40;12.10;99.90
37204;DHT22;23098;48.054;10.636;2022-10-31T17:29:06;12.10;99.90
37204;DHT22;23098;48.054;10.636;2022-10-31T17:31:33;12.10;99.90
37204;DHT22;23098;48.054;10.636;2022-10-31T17:34:01;12.10;99.90
37204;DHT22;23098;48.054;10.636;2022-10-31T17:36:30;12.10;99.90
37204;DHT22;23098;48.054;10.636;2022-10-31T17:38:55;12.00;99.90
37204;DHT22;23098;48.054;10.636;2022-10-31T17:41:21;12.00;99.90
37204;DHT22;23098;48.054;10.636;2022-10-31T17:43:46;11.90;99.90
37204;DHT22;23098;48.054;10.636;2022-10-31T17:46:12;11.80;99.90
37204;DHT22;23098;48.054;10.636;2022-10-31T17:48:38;12.00;99.90
37204;DHT22;23098;48.054;10.636;2022-10-31T17:51:05;11.90;99.90
37204;DHT22;23098;48.054;10.636;2022-10-31T17:53:32;11.80;99.90
37204;DHT22;23098;48.054;10.636;2022-10-31T17:56:03;11.70;99.90
37204;DHT22;23098;48.054;10.636;2022-10-31T17:58:29;11.60;99.90
37204;DHT22;23098;48.054;10.636;2022-10-31T18:00:55;11.80;99.90
37204;DHT22;23098;48.054;10.636;2022-10-31T18:03:21;11.80;99.90
37204;DHT22;23098;48.054;10.636;2022-10-31T18:05:52;11.60;99.90
37204;DHT22;23098;48.054;10.636;2022-10-31T18:08:17;11.60;99.90
37204;DHT22;23098;48.054;10.636;2022-10-31T18:10:43;11.50;99.90
37204;DHT22;23098;48.054;10.636;2022-10-31T18:13:08;11.50;99.90
37204;DHT22;23098;48.054;10.636;2022-10-31T18:15:38;11.40;99.90
37204;DHT22;23098;48.054;10.636;2022-10-31T18:18:04;11.40;99.90
37204;DHT22;23098;48.054;10.636;2022-10-31T18:20:31;11.40;99.90
37204;DHT22;23098;48.054;10.636;2022-10-31T18:22:57;11.40;99.90
37204;DHT22;23098;48.054;10.636;2022-10-31T18:25:22;11.50;99.90
37204;DHT22;23098;48.054;10.636;2022-10-31T18:27:48;11.50;99.90
37204;DHT22;23098;48.054;10.636;2022-10-31T18:30:15;11.60;99.90
37204;DHT22;23098;48.054;10.636;2022-10-31T18:32:40;11.60;99.90
37204;DHT22;23098;48.054;10.636;2022-10-31T18:35:06;11.40;99.90
37204;DHT22;23098;48.054;10.636;2022-10-31T18:37:32;11.20;99.90
37204;DHT22;23098;48.054;10.636;2022-10-31T18:39:57;11.20;99.90
37204;DHT22;23098;48.054;10.636;2022-10-31T18:42:23;11.10;99.90
37204;DHT22;23098;48.054;10.636;2022-10-31T18:44:51;11.20;99.90
37204;DHT22;23098;48.054;10.636;2022-10-31T18:47:16;11.20;99.90
37204;DHT22;23098;48.054;10.636;2022-10-31T18:49:43;11.20;99.90
37204;DHT22;23098;48.054;10.636;2022-10-31T18:52:09;11.20;99.90
37204;DHT22;23098;48.054;10.636;2022-10-31T18:54:34;11.10;99.90
37204;DHT22;23098;48.054;10.636;2022-10-31T18:57:00;11.10;99.90
37204;DHT22;23098;48.054;10.636;2022-10-31T18:59:26;11.10;99.90
37204;DHT22;23098;48.054;10.636;2022-10-31T19:01:52;11.20;99.90
37204;DHT22;23098;48.054;10.636;2022-10-31T19:04:17;11.20;99.90